Ocoee 2 Observed Data For Previous 48 Hours

Note: Discharge information is a combination of river flows at the Ocoee No. 2 dam and the volume of water diverted by the Ocoee Flume, which bypasses the middle section of the river where recreational rafting is held.

Caption
Day and Hour Reservoir Elevation (behind dam)* Tailwater Elevation (below dam)* Average Hourly Discharge*
11/17/2017 2 AM EST 842.33 1,219
11/17/2017 3 AM EST 842.31 1,203
11/17/2017 4 AM EST 842.31 1,203
11/17/2017 5 AM EST 842.31 1,211
11/17/2017 6 AM EST 842.31 1,203
11/17/2017 7 AM EST 842.31 1,203
11/17/2017 8 AM EST 842.31 1,203
11/17/2017 9 AM EST 842.32 1,211
11/17/2017 10 AM EST 842.31 1,211
11/17/2017 11 AM EST 842.31 1,203
11/17/2017 12 PM EST 842.31 1,211
11/17/2017 1 PM EST 842.33 1,218
11/17/2017 2 PM EST 842.32 1,212
11/17/2017 3 PM EST 842.32 1,211
11/17/2017 4 PM EST 842.31 1,197
11/17/2017 5 PM EST 842.31 1,203
11/17/2017 6 PM EST 842.32 1,211
11/17/2017 7 PM EST 842.31 1,211
11/17/2017 8 PM EST 842.31 1,203
11/17/2017 9 PM EST 842.31 1,203
11/17/2017 10 PM EST 842.31 1,211
11/17/2017 11 PM EST 842.32 1,211
11/18/2017 12 AM EST 842.31 1,211
11/18/2017 1 AM EST 842.31 1,211
11/18/2017 2 AM EST 842.32 1,211
11/18/2017 3 AM EST 842.31 1,211
11/18/2017 4 AM EST 842.31 1,211
11/18/2017 5 AM EST 842.31 1,203
11/18/2017 6 AM EST 842.32 1,203
11/18/2017 7 AM EST 842.31 1,203
11/18/2017 8 AM EST 842.31 1,203
11/18/2017 9 AM EST 842.32 1,211
11/18/2017 10 AM EST 842.31 1,203
11/18/2017 11 AM EST 842.32 1,211
11/18/2017 12 PM EST 842.31 1,211
11/18/2017 1 PM EST 842.32 1,211
11/18/2017 2 PM EST 842.32 1,211
11/18/2017 3 PM EST 842.32 1,211
11/18/2017 4 PM EST 842.32 1,211
11/18/2017 5 PM EST 842.32 1,212
11/18/2017 6 PM EST 842.31 1,211
11/18/2017 7 PM EST 842.33 1,212
11/18/2017 8 PM EST 842.33 1,219
11/18/2017 9 PM EST 842.32 1,211
11/18/2017 10 PM EST 842.38 1,273
11/18/2017 11 PM EST 842.37 1,264
11/19/2017 12 AM EST 842.35 1,241
11/19/2017 1 AM EST 842.35 1,241
11/19/2017 2 AM EST 842.35 1,241
11/19/2017 3 AM EST 842.36 1,246

Elevations are in feet above sea level. Discharges are in cubic feet per second and are reported at the end of the hour.